createdAt,value
2023-05-21T00:00:20.507Z,0.56
2023-05-21T00:01:20.563Z,0.54
2023-05-21T00:02:20.628Z,0.55
2023-05-21T00:03:21.675Z,0.55
2023-05-21T00:04:21.345Z,0.55
2023-05-21T00:05:20.535Z,0.55
2023-05-21T00:06:20.598Z,0.55
2023-05-21T00:07:20.552Z,0.56
2023-05-21T00:08:20.552Z,0.56
2023-05-21T00:09:20.532Z,0.56
2023-05-21T00:10:20.847Z,0.55
2023-05-21T00:11:20.512Z,0.56
2023-05-21T00:12:20.528Z,0.56
2023-05-21T00:13:20.568Z,0.55
2023-05-21T00:14:20.592Z,0.56
2023-05-21T00:15:20.639Z,0.56
2023-05-21T00:16:20.769Z,0.56
2023-05-21T00:17:20.749Z,0.55
2023-05-21T00:18:20.749Z,0.55
2023-05-21T00:19:20.791Z,0.55
2023-05-21T00:20:20.745Z,0.56
2023-05-21T00:21:20.709Z,0.55
2023-05-21T00:22:20.702Z,0.55
2023-05-21T00:23:20.705Z,0.56
2023-05-21T00:24:20.701Z,0.56
2023-05-21T00:25:20.670Z,0.56
2023-05-21T00:26:20.686Z,0.56
2023-05-21T00:27:20.668Z,0.55
2023-05-21T00:28:22.398Z,0.56
2023-05-21T00:29:20.654Z,0.55
2023-05-21T00:30:20.684Z,0.54
2023-05-21T00:31:20.672Z,0.55
2023-05-21T00:32:20.646Z,0.55
2023-05-21T00:33:20.625Z,0.55
2023-05-21T00:34:20.661Z,0.55
2023-05-21T00:35:20.715Z,0.55
2023-05-21T00:36:21.364Z,0.56
2023-05-21T00:37:20.748Z,0.55
2023-05-21T00:38:22.393Z,0.56
2023-05-21T00:39:20.799Z,0.56
2023-05-21T00:40:20.883Z,0.55
2023-05-21T00:41:20.887Z,0.55
2023-05-21T00:42:20.895Z,0.56
2023-05-21T00:43:20.931Z,0.55
2023-05-21T00:44:20.933Z,0.55
2023-05-21T00:45:20.939Z,0.56
2023-05-21T00:46:21.011Z,0.54
2023-05-21T00:47:21.002Z,0.54
2023-05-21T00:48:21.928Z,0.54
2023-05-21T00:49:20.918Z,0.54
2023-05-21T00:50:20.952Z,0.54
2023-05-21T00:51:20.913Z,0.54
2023-05-21T00:52:20.906Z,0.56
2023-05-21T00:53:20.919Z,0.55
2023-05-21T00:54:20.917Z,0.55
2023-05-21T00:55:20.915Z,0.56
2023-05-21T00:56:20.917Z,0.55
2023-05-21T00:57:20.882Z,0.55
2023-05-21T00:58:20.895Z,0.54
2023-05-21T00:59:20.883Z,0.56
2023-05-21T01:00:20.867Z,0.55
2023-05-21T01:01:20.991Z,0.56
2023-05-21T01:02:20.873Z,0.55
2023-05-21T01:03:21.111Z,0.55
2023-05-21T01:04:20.932Z,0.56
2023-05-21T01:05:20.929Z,0.54
2023-05-21T01:06:20.945Z,0.55
2023-05-21T01:07:20.971Z,0.56
2023-05-21T01:08:21.005Z,0.56
2023-05-21T01:09:21.025Z,0.55
2023-05-21T01:10:21.078Z,0.56
2023-05-21T01:11:21.837Z,0.56
2023-05-21T01:12:21.801Z,0.56
2023-05-21T01:13:21.127Z,0.56
2023-05-21T01:14:21.167Z,0.55
2023-05-21T01:15:21.318Z,0.56
2023-05-21T01:16:21.280Z,0.55
2023-05-21T01:17:21.309Z,0.56
2023-05-21T01:18:21.353Z,0.55
2023-05-21T01:19:21.371Z,0.56
2023-05-21T01:20:21.327Z,0.55
2023-05-21T01:21:21.369Z,0.56
2023-05-21T01:22:21.401Z,0.55
2023-05-21T01:23:21.402Z,0.56
2023-05-21T01:24:21.445Z,0.56
2023-05-21T01:25:22.859Z,0.56
2023-05-21T01:26:21.477Z,0.56
2023-05-21T01:27:21.547Z,0.57
2023-05-21T01:28:21.549Z,0.55
2023-05-21T01:29:21.512Z,0.55
2023-05-21T01:30:21.510Z,0.55
2023-05-21T01:31:21.534Z,0.56
2023-05-21T01:32:21.529Z,0.56
2023-05-21T01:33:21.536Z,0.56
2023-05-21T01:34:21.528Z,0.56
2023-05-21T01:35:21.534Z,0.57
2023-05-21T01:36:21.502Z,0.56
2023-05-21T01:37:21.512Z,0.57
2023-05-21T01:38:21.467Z,0.55
2023-05-21T01:39:21.459Z,0.57
2023-05-21T01:40:21.468Z,0.56
2023-05-21T01:41:21.546Z,0.56
2023-05-21T01:42:21.484Z,0.55
2023-05-21T01:43:21.437Z,0.57
2023-05-21T01:44:21.453Z,0.57
2023-05-21T01:45:21.872Z,0.56
2023-05-21T01:46:21.469Z,0.56
2023-05-21T01:47:21.426Z,0.57
2023-05-21T01:48:21.446Z,0.57
2023-05-21T01:49:21.465Z,0.56
2023-05-21T01:50:21.494Z,0.57
2023-05-21T01:51:22.497Z,0.57
2023-05-21T01:52:21.459Z,0.57
2023-05-21T01:53:21.472Z,0.57
2023-05-21T01:54:21.439Z,0.57
2023-05-21T01:55:21.472Z,0.57
2023-05-21T01:56:21.467Z,0.56
2023-05-21T01:57:21.476Z,0.57
2023-05-21T01:58:21.398Z,0.56
2023-05-21T01:59:21.456Z,0.57
2023-05-21T02:00:21.866Z,0.56
2023-05-21T02:01:22.457Z,0.57
2023-05-21T02:02:22.396Z,0.57
2023-05-21T02:03:21.564Z,0.56
2023-05-21T02:04:21.390Z,0.57
2023-05-21T02:05:21.398Z,0.57
2023-05-21T02:06:22.383Z,0.57
2023-05-21T02:07:21.400Z,0.57
2023-05-21T02:08:21.381Z,0.57
2023-05-21T02:09:21.420Z,0.55
2023-05-21T02:10:22.392Z,0.57
2023-05-21T02:11:21.425Z,0.56
2023-05-21T02:12:21.435Z,0.57
2023-05-21T02:13:23.048Z,0.57
2023-05-21T02:14:21.450Z,0.57
2023-05-21T02:15:21.460Z,0.57
2023-05-21T02:16:21.486Z,0.57
2023-05-21T02:17:21.474Z,0.57
2023-05-21T02:18:21.497Z,0.57
2023-05-21T02:19:21.497Z,0.56
2023-05-21T02:20:21.462Z,0.56
2023-05-21T02:21:21.446Z,0.56
2023-05-21T02:22:21.458Z,0.56
2023-05-21T02:23:21.411Z,0.57
2023-05-21T02:24:21.397Z,0.56
2023-05-21T02:25:21.446Z,0.55
2023-05-21T02:26:21.415Z,0.57
2023-05-21T02:27:21.403Z,0.57
2023-05-21T02:28:21.442Z,0.57
2023-05-21T02:29:21.392Z,0.57
2023-05-21T02:30:21.422Z,0.57
2023-05-21T02:31:22.389Z,0.56
2023-05-21T02:32:21.920Z,0.57
2023-05-21T02:33:21.359Z,0.57
2023-05-21T02:34:21.484Z,0.57
2023-05-21T02:35:21.362Z,0.57
2023-05-21T02:36:21.356Z,0.56
2023-05-21T02:37:21.346Z,0.57
2023-05-21T02:38:21.308Z,0.56
2023-05-21T02:39:21.324Z,0.56
2023-05-21T02:40:21.410Z,0.57
2023-05-21T02:41:21.276Z,0.56
2023-05-21T02:42:21.303Z,0.56
2023-05-21T02:43:21.303Z,0.56
2023-05-21T02:44:21.290Z,0.57
2023-05-21T02:45:22.284Z,0.57
2023-05-21T02:46:21.319Z,0.57
2023-05-21T02:47:21.278Z,0.57
2023-05-21T02:48:21.240Z,0.57
2023-05-21T02:49:21.253Z,0.58
2023-05-21T02:50:21.388Z,0.58
2023-05-21T02:51:21.231Z,0.57
2023-05-21T02:52:21.205Z,0.56
2023-05-21T02:53:21.215Z,0.57
2023-05-21T02:54:21.224Z,0.57
2023-05-21T02:55:21.419Z,0.56
2023-05-21T02:56:21.247Z,0.58
2023-05-21T02:57:21.186Z,0.56
2023-05-21T02:58:21.186Z,0.56
2023-05-21T02:59:21.143Z,0.56
2023-05-21T03:00:21.399Z,0.56
2023-05-21T03:01:21.257Z,0.56
2023-05-21T03:02:21.215Z,0.56
2023-05-21T03:03:21.250Z,0.56
2023-05-21T03:04:21.231Z,0.57
2023-05-21T03:05:21.386Z,0.56
2023-05-21T03:06:21.227Z,0.56
2023-05-21T03:07:21.233Z,0.56
2023-05-21T03:08:21.262Z,0.57
2023-05-21T03:09:21.313Z,0.57
2023-05-21T03:10:21.445Z,0.55
2023-05-21T03:11:21.338Z,0.56
2023-05-21T03:12:21.338Z,0.55
2023-05-21T03:13:21.387Z,0.56
2023-05-21T03:14:21.410Z,0.55
2023-05-21T03:15:21.917Z,0.55
2023-05-21T03:16:21.455Z,0.56
2023-05-21T03:17:21.448Z,0.57
2023-05-21T03:18:21.457Z,0.56
2023-05-21T03:19:21.486Z,0.57
2023-05-21T03:20:21.509Z,0.56
2023-05-21T03:21:21.475Z,0.56
2023-05-21T03:22:21.516Z,0.57
2023-05-21T03:23:21.525Z,0.55
2023-05-21T03:24:21.524Z,0.56
2023-05-21T03:25:21.534Z,0.56
2023-05-21T03:26:21.595Z,0.55
2023-05-21T03:27:21.585Z,0.57
2023-05-21T03:28:21.618Z,0.56
2023-05-21T03:29:21.594Z,0.56
2023-05-21T03:30:21.901Z,0.56
2023-05-21T03:31:21.629Z,0.56
2023-05-21T03:32:21.699Z,0.55
2023-05-21T03:33:21.656Z,0.55
2023-05-21T03:34:21.693Z,0.55
2023-05-21T03:35:21.906Z,0.55
2023-05-21T03:36:21.709Z,0.55
2023-05-21T03:37:21.729Z,0.55
2023-05-21T03:38:21.720Z,0.54
2023-05-21T03:39:21.736Z,0.56
2023-05-21T03:40:21.748Z,0.54
2023-05-21T03:41:21.738Z,0.56
2023-05-21T03:42:21.786Z,0.56
2023-05-21T03:43:21.795Z,0.54
2023-05-21T03:44:21.810Z,0.54
2023-05-21T03:45:21.927Z,0.55
2023-05-21T03:46:21.865Z,0.54
2023-05-21T03:47:21.905Z,0.56
2023-05-21T03:48:21.892Z,0.55
2023-05-21T03:49:21.914Z,0.55
2023-05-21T03:50:22.433Z,0.54
2023-05-21T03:51:21.976Z,0.55
2023-05-21T03:52:21.979Z,0.54
2023-05-21T03:53:22.018Z,0.53
2023-05-21T03:54:22.050Z,0.54
2023-05-21T03:55:22.063Z,0.54
2023-05-21T03:56:22.109Z,0.54
2023-05-21T03:57:22.162Z,0.53
2023-05-21T03:58:22.195Z,0.55
2023-05-21T03:59:22.179Z,0.54
2023-05-21T04:00:22.422Z,0.55
2023-05-21T04:01:22.244Z,0.54
2023-05-21T04:02:22.355Z,0.55
2023-05-21T04:03:22.364Z,0.54
2023-05-21T04:04:22.309Z,0.54
2023-05-21T04:05:22.431Z,0.56
2023-05-21T04:06:22.371Z,0.55
2023-05-21T04:07:22.333Z,0.54
2023-05-21T04:08:22.347Z,0.54
2023-05-21T04:09:22.395Z,0.55
2023-05-21T04:10:22.430Z,0.54
2023-05-21T04:11:22.520Z,0.55
2023-05-21T04:12:22.420Z,0.54
2023-05-21T04:13:22.453Z,0.54
2023-05-21T04:14:22.471Z,0.54
2023-05-21T04:15:22.933Z,0.53
2023-05-21T04:16:22.569Z,0.54
2023-05-21T04:17:22.664Z,0.53
2023-05-21T04:18:22.523Z,0.53
2023-05-21T04:19:22.606Z,0.53
2023-05-21T04:20:22.945Z,0.54
2023-05-21T04:21:22.612Z,0.54
2023-05-21T04:22:22.604Z,0.53
2023-05-21T04:23:22.619Z,0.54
2023-05-21T04:24:22.683Z,0.54
2023-05-21T04:25:22.917Z,0.54
2023-05-21T04:26:22.682Z,0.54
2023-05-21T04:27:22.689Z,0.53
2023-05-21T04:28:22.760Z,0.54
2023-05-21T04:29:22.719Z,0.54
2023-05-21T04:30:22.938Z,0.54
2023-05-21T04:31:22.813Z,0.54
2023-05-21T04:32:22.781Z,0.54
2023-05-21T04:33:22.797Z,0.53
2023-05-21T04:34:22.799Z,0.54
2023-05-21T04:35:22.949Z,0.54
2023-05-21T04:36:22.814Z,0.54
2023-05-21T04:37:22.811Z,0.54
2023-05-21T04:38:22.858Z,0.54
2023-05-21T04:39:22.859Z,0.55
2023-05-21T04:40:22.938Z,0.53
2023-05-21T04:41:22.908Z,0.55
2023-05-21T04:42:22.901Z,0.55
2023-05-21T04:43:22.882Z,0.54
2023-05-21T04:44:22.920Z,0.55
2023-05-21T04:45:22.953Z,0.55
2023-05-21T04:46:22.968Z,0.54
2023-05-21T04:47:23.009Z,0.56
2023-05-21T04:48:22.960Z,0.55
2023-05-21T04:49:22.989Z,0.55
2023-05-21T04:50:23.449Z,0.54
2023-05-21T04:51:23.022Z,0.55
2023-05-21T04:52:23.058Z,0.54
2023-05-21T04:53:23.051Z,0.55
2023-05-21T04:54:23.073Z,0.55
2023-05-21T04:55:23.454Z,0.54
2023-05-21T04:56:23.050Z,0.55
2023-05-21T04:57:23.109Z,0.54
2023-05-21T04:58:23.112Z,0.55
2023-05-21T04:59:23.115Z,0.55
2023-05-21T05:00:23.464Z,0.54
2023-05-21T05:01:23.178Z,0.56
2023-05-21T05:02:23.261Z,0.56
2023-05-21T05:03:23.247Z,0.56
2023-05-21T05:04:23.204Z,0.55
2023-05-21T05:05:23.460Z,0.55
2023-05-21T05:06:23.206Z,0.56
2023-05-21T05:07:23.221Z,0.56
2023-05-21T05:08:23.203Z,0.55
2023-05-21T05:09:23.225Z,0.55
2023-05-21T05:10:23.481Z,0.54
2023-05-21T05:11:23.218Z,0.55
2023-05-21T05:12:23.219Z,0.55
2023-05-21T05:13:23.252Z,0.55
2023-05-21T05:14:23.263Z,0.56
2023-05-21T05:15:23.322Z,0.55
2023-05-21T05:16:23.332Z,0.55
2023-05-21T05:17:23.348Z,0.55
2023-05-21T05:18:23.335Z,0.55
2023-05-21T05:19:23.375Z,0.55
2023-05-21T05:20:23.466Z,0.55
2023-05-21T05:21:23.429Z,0.55
2023-05-21T05:22:23.414Z,0.54
2023-05-21T05:23:23.451Z,0.55
2023-05-21T05:24:23.480Z,0.56
2023-05-21T05:25:23.467Z,0.56
2023-05-21T05:26:23.515Z,0.55
2023-05-21T05:27:23.465Z,0.55
2023-05-21T05:28:23.491Z,0.54
2023-05-21T05:29:23.488Z,0.55
2023-05-21T05:30:23.492Z,0.56
2023-05-21T05:31:23.644Z,0.54
2023-05-21T05:32:23.533Z,0.54
2023-05-21T05:33:23.515Z,0.55
2023-05-21T05:34:23.591Z,0.55
2023-05-21T05:35:23.587Z,0.56
2023-05-21T05:36:24.441Z,0.54
2023-05-21T05:37:23.586Z,0.56
2023-05-21T05:38:23.595Z,0.56
2023-05-21T05:39:23.598Z,0.56
2023-05-21T05:40:23.602Z,0.56
2023-05-21T05:41:23.622Z,0.56
2023-05-21T05:42:23.712Z,0.56
2023-05-21T05:43:23.672Z,0.55
2023-05-21T05:44:23.682Z,0.55
2023-05-21T05:45:23.731Z,0.57
2023-05-21T05:46:23.811Z,0.55
2023-05-21T05:47:23.848Z,0.56
2023-05-21T05:48:23.733Z,0.56
2023-05-21T05:49:23.761Z,0.55
2023-05-21T05:50:23.772Z,0.55
2023-05-21T05:51:23.792Z,0.54
2023-05-21T05:52:23.812Z,0.56
2023-05-21T05:53:23.849Z,0.55
2023-05-21T05:54:23.847Z,0.55
2023-05-21T05:55:23.860Z,0.55
2023-05-21T05:56:23.877Z,0.55
2023-05-21T05:57:23.880Z,0.55
2023-05-21T05:58:23.937Z,0.56
2023-05-21T05:59:23.942Z,0.56
2023-05-21T06:00:23.996Z,0.56
2023-05-21T06:01:23.951Z,0.55
2023-05-21T06:02:24.004Z,0.56
2023-05-21T06:03:24.142Z,0.56
2023-05-21T06:04:23.998Z,0.55
2023-05-21T06:05:24.508Z,0.55
2023-05-21T06:06:24.093Z,0.56
2023-05-21T06:07:24.031Z,0.55
2023-05-21T06:08:24.025Z,0.55
2023-05-21T06:09:24.032Z,0.55
2023-05-21T06:10:24.431Z,0.55
2023-05-21T06:11:24.097Z,0.56
2023-05-21T06:12:24.127Z,0.55
2023-05-21T06:13:24.132Z,0.54
2023-05-21T06:14:24.133Z,0.56
2023-05-21T06:15:24.450Z,0.55
2023-05-21T06:16:24.216Z,0.56
2023-05-21T06:17:24.249Z,0.56
2023-05-21T06:18:24.210Z,0.56
2023-05-21T06:19:24.378Z,0.54
2023-05-21T06:20:24.481Z,0.55
2023-05-21T06:21:24.235Z,0.56
2023-05-21T06:22:25.643Z,0.56
2023-05-21T06:23:24.306Z,0.55
2023-05-21T06:24:24.321Z,0.55
2023-05-21T06:25:24.328Z,0.55
2023-05-21T06:26:24.436Z,0.56
2023-05-21T06:27:24.360Z,0.55
2023-05-21T06:28:24.364Z,0.54
2023-05-21T06:29:24.387Z,0.55
2023-05-21T06:30:24.451Z,0.55
2023-05-21T06:31:24.415Z,0.55
2023-05-21T06:32:24.470Z,0.53
2023-05-21T06:33:24.457Z,0.53
2023-05-21T06:34:24.450Z,0.53
2023-05-21T06:35:24.483Z,0.54
2023-05-21T06:36:24.478Z,0.53
2023-05-21T06:37:26.533Z,0.53
2023-05-21T06:38:24.572Z,0.54
2023-05-21T06:39:24.540Z,0.53
2023-05-21T06:40:24.556Z,0.54
2023-05-21T06:41:24.553Z,0.54
2023-05-21T06:42:24.572Z,0.54
2023-05-21T06:43:24.595Z,0.54
2023-05-21T06:44:24.613Z,0.53
2023-05-21T06:45:24.641Z,0.53
2023-05-21T06:46:24.688Z,0.54
2023-05-21T06:47:24.695Z,0.55
2023-05-21T06:48:24.675Z,0.54
2023-05-21T06:49:24.707Z,0.53
2023-05-21T06:50:25.006Z,0.54
2023-05-21T06:51:24.731Z,0.53
2023-05-21T06:52:24.740Z,0.55
2023-05-21T06:53:24.790Z,0.55
2023-05-21T06:54:26.770Z,0.55
2023-05-21T06:55:24.990Z,0.55
2023-05-21T06:56:24.821Z,0.54
2023-05-21T06:57:24.858Z,0.54
2023-05-21T06:58:24.881Z,0.54
2023-05-21T06:59:24.882Z,0.53
2023-05-21T07:00:24.962Z,0.55
2023-05-21T07:01:24.943Z,0.54
2023-05-21T07:02:25.033Z,0.55
2023-05-21T07:03:25.189Z,0.55
2023-05-21T07:04:25.034Z,0.55
2023-05-21T07:05:25.053Z,0.55
2023-05-21T07:06:25.105Z,0.55
2023-05-21T07:07:25.117Z,0.54
2023-05-21T07:08:25.127Z,0.54
2023-05-21T07:09:25.130Z,0.54
2023-05-21T07:10:25.156Z,0.55
2023-05-21T07:11:25.195Z,0.55
2023-05-21T07:12:25.223Z,0.56
2023-05-21T07:13:25.256Z,0.54
2023-05-21T07:14:25.301Z,0.54
2023-05-21T07:15:25.326Z,0.55
2023-05-21T07:16:25.377Z,0.54
2023-05-21T07:17:25.395Z,0.55
2023-05-21T07:18:25.396Z,0.55
2023-05-21T07:19:25.580Z,0.55
2023-05-21T07:20:25.571Z,0.56
2023-05-21T07:21:25.549Z,0.54
2023-05-21T07:22:27.951Z,0.55
2023-05-21T07:23:25.564Z,0.54
2023-05-21T07:24:25.581Z,0.55
2023-05-21T07:25:25.994Z,0.55
2023-05-21T07:26:25.566Z,0.55
2023-05-21T07:27:26.213Z,0.55
2023-05-21T07:28:25.559Z,0.56
2023-05-21T07:29:25.510Z,0.56
2023-05-21T07:30:26.012Z,0.54
2023-05-21T07:31:25.567Z,0.55
2023-05-21T07:32:25.538Z,0.56
2023-05-21T07:33:25.502Z,0.56
2023-05-21T07:34:25.572Z,0.55
2023-05-21T07:35:25.511Z,0.55
2023-05-21T07:36:25.519Z,0.55
2023-05-21T07:37:25.466Z,0.55
2023-05-21T07:38:25.461Z,0.56
2023-05-21T07:39:25.425Z,0.55
2023-05-21T07:40:25.474Z,0.56
2023-05-21T07:41:25.474Z,0.56
2023-05-21T07:42:25.456Z,0.56
2023-05-21T07:43:25.484Z,0.56
2023-05-21T07:44:25.426Z,0.56
2023-05-21T07:45:25.394Z,0.56
2023-05-21T07:46:25.436Z,0.55
2023-05-21T07:47:25.432Z,0.56
2023-05-21T07:48:25.409Z,0.54
2023-05-21T07:49:25.407Z,0.56
2023-05-21T07:50:25.502Z,0.56
2023-05-21T07:51:25.423Z,0.57
2023-05-21T07:52:25.392Z,0.57
2023-05-21T07:53:25.395Z,0.56
2023-05-21T07:54:25.384Z,0.56
2023-05-21T07:55:25.366Z,0.57
2023-05-21T07:56:25.343Z,0.57
2023-05-21T07:57:25.369Z,0.58
2023-05-21T07:58:25.320Z,0.56
2023-05-21T07:59:25.337Z,0.55
2023-05-21T08:00:25.381Z,0.56
2023-05-21T08:01:25.342Z,0.56
2023-05-21T08:02:25.439Z,0.56
2023-05-21T08:03:25.373Z,0.56
2023-05-21T08:04:25.439Z,0.56
2023-05-21T08:05:25.376Z,0.56
2023-05-21T08:06:25.452Z,0.56
2023-05-21T08:07:25.447Z,0.56
2023-05-21T08:08:25.551Z,0.57
2023-05-21T08:09:25.586Z,0.56
2023-05-21T08:10:25.597Z,0.58
2023-05-21T08:11:25.657Z,0.56
2023-05-21T08:12:25.711Z,0.57
2023-05-21T08:13:25.769Z,0.57
2023-05-21T08:14:25.815Z,0.58
2023-05-21T08:15:25.832Z,0.57
2023-05-21T08:16:26.100Z,0.57
2023-05-21T08:17:26.016Z,0.57
2023-05-21T08:18:26.006Z,0.56
2023-05-21T08:19:26.043Z,0.56
2023-05-21T08:20:26.055Z,0.57
2023-05-21T08:21:26.549Z,0.55
2023-05-21T08:22:26.203Z,0.56
2023-05-21T08:23:26.215Z,0.58
2023-05-21T08:24:26.257Z,0.57
2023-05-21T08:25:26.288Z,0.57
2023-05-21T08:26:26.525Z,0.57
2023-05-21T08:27:26.372Z,0.58
2023-05-21T08:28:26.435Z,0.56
2023-05-21T08:29:26.497Z,0.57
2023-05-21T08:30:26.515Z,0.57
2023-05-21T08:31:27.011Z,0.57
2023-05-21T08:32:26.643Z,0.56
2023-05-21T08:33:26.649Z,0.57
2023-05-21T08:34:26.759Z,0.57
2023-05-21T08:35:26.748Z,0.56
2023-05-21T08:36:27.037Z,0.56
2023-05-21T08:37:26.850Z,0.57
2023-05-21T08:38:28.777Z,0.56
2023-05-21T08:39:26.913Z,0.57
2023-05-21T08:40:26.871Z,0.57
2023-05-21T08:41:26.880Z,0.57
2023-05-21T08:42:36.263Z,0.56
2023-05-21T08:43:27.878Z,0.57
2023-05-21T08:44:26.853Z,0.57
2023-05-21T08:45:26.856Z,0.58
2023-05-21T08:46:26.985Z,0.58
2023-05-21T08:47:26.854Z,0.58
2023-05-21T08:48:26.821Z,0.58
2023-05-21T08:49:27.412Z,0.57
2023-05-21T08:50:26.807Z,0.56
2023-05-21T08:51:26.800Z,0.57
2023-05-21T08:52:26.813Z,0.57
2023-05-21T08:53:28.609Z,0.58
2023-05-21T08:54:26.953Z,0.57
2023-05-21T08:55:27.023Z,0.58
2023-05-21T08:56:27.501Z,0.56
2023-05-21T08:57:27.095Z,0.57
2023-05-21T08:58:27.112Z,0.58
2023-05-21T08:59:27.172Z,0.57
2023-05-21T09:00:27.241Z,0.58
2023-05-21T09:01:27.343Z,0.57
2023-05-21T09:02:27.362Z,0.58
2023-05-21T09:03:27.479Z,0.58
2023-05-21T09:04:27.479Z,0.57
2023-05-21T09:05:27.498Z,0.59
2023-05-21T09:06:27.577Z,0.57
2023-05-21T09:07:27.583Z,0.58
2023-05-21T09:08:27.659Z,0.58
2023-05-21T09:09:27.713Z,0.56
2023-05-21T09:10:27.738Z,0.59
2023-05-21T09:11:27.803Z,0.56
2023-05-21T09:12:27.837Z,0.57
2023-05-21T09:13:27.898Z,0.58
2023-05-21T09:14:27.948Z,0.58
2023-05-21T09:15:27.980Z,0.59
2023-05-21T09:16:28.097Z,0.57
2023-05-21T09:17:28.119Z,0.57
2023-05-21T09:18:28.147Z,0.58
2023-05-21T09:19:28.215Z,0.59
2023-05-21T09:20:28.224Z,0.57
2023-05-21T09:21:28.372Z,0.59
2023-05-21T09:22:28.351Z,0.58
2023-05-21T09:23:28.400Z,0.57
2023-05-21T09:24:28.425Z,0.59
2023-05-21T09:25:28.485Z,0.59
2023-05-21T09:26:29.119Z,0.60
2023-05-21T09:27:28.614Z,0.58
2023-05-21T09:28:28.644Z,0.57
2023-05-21T09:29:28.708Z,0.58
2023-05-21T09:30:30.246Z,0.58
2023-05-21T09:31:28.832Z,0.58
2023-05-21T09:32:28.789Z,0.58
2023-05-21T09:33:28.747Z,0.58
2023-05-21T09:34:28.742Z,0.60
2023-05-21T09:35:28.726Z,0.58
2023-05-21T09:36:28.729Z,0.57
2023-05-21T09:37:28.718Z,0.59
2023-05-21T09:38:28.709Z,0.58
2023-05-21T09:39:28.714Z,0.58
2023-05-21T09:40:28.710Z,0.58
2023-05-21T09:41:28.690Z,0.58
2023-05-21T09:42:28.671Z,0.57
2023-05-21T09:43:28.676Z,0.58
2023-05-21T09:44:28.680Z,0.57
2023-05-21T09:45:28.665Z,0.57
2023-05-21T09:46:28.710Z,0.57
2023-05-21T09:47:28.694Z,0.58
2023-05-21T09:48:28.649Z,0.56
2023-05-21T09:49:28.655Z,0.56
2023-05-21T09:50:28.637Z,0.57
2023-05-21T09:51:28.620Z,0.56
2023-05-21T09:52:28.605Z,0.56
2023-05-21T09:53:28.622Z,0.56
2023-05-21T09:54:28.614Z,0.56
2023-05-21T09:55:28.588Z,0.55
2023-05-21T09:56:28.609Z,0.57
2023-05-21T09:57:28.603Z,0.57
2023-05-21T09:58:28.573Z,0.56
2023-05-21T09:59:28.544Z,0.56
2023-05-21T10:00:28.550Z,0.55
2023-05-21T10:01:29.061Z,0.56
2023-05-21T10:02:28.571Z,0.56
2023-05-21T10:03:28.551Z,0.56
2023-05-21T10:04:28.725Z,0.54
2023-05-21T10:05:28.524Z,0.55
2023-05-21T10:06:28.540Z,0.54
2023-05-21T10:07:28.502Z,0.54
2023-05-21T10:08:28.548Z,0.54
2023-05-21T10:09:28.505Z,0.54
2023-05-21T10:10:28.522Z,0.55
2023-05-21T10:11:28.491Z,0.54
2023-05-21T10:12:28.471Z,0.55
2023-05-21T10:13:28.502Z,0.55
2023-05-21T10:14:28.486Z,0.54
2023-05-21T10:15:28.526Z,0.55
2023-05-21T10:16:28.593Z,0.54
2023-05-21T10:17:28.604Z,0.54
2023-05-21T10:18:28.668Z,0.54
2023-05-21T10:19:28.725Z,0.55
2023-05-21T10:20:28.737Z,0.55
2023-05-21T10:21:29.025Z,0.54
2023-05-21T10:22:28.851Z,0.54
2023-05-21T10:23:28.878Z,0.54
2023-05-21T10:24:28.887Z,0.54
2023-05-21T10:25:28.942Z,0.54
2023-05-21T10:26:29.014Z,0.56
2023-05-21T10:27:31.366Z,0.54
2023-05-21T10:28:29.017Z,0.55
2023-05-21T10:29:28.993Z,0.56
2023-05-21T10:30:28.988Z,0.55
2023-05-21T10:31:28.993Z,0.55
2023-05-21T10:32:29.056Z,0.54
2023-05-21T10:33:28.991Z,0.54
2023-05-21T10:34:28.950Z,0.54
2023-05-21T10:35:28.957Z,0.54
2023-05-21T10:36:29.029Z,0.54
2023-05-21T10:37:28.941Z,0.54
2023-05-21T10:38:28.954Z,0.54
2023-05-21T10:39:28.942Z,0.53
2023-05-21T10:40:28.965Z,0.55
2023-05-21T10:41:28.931Z,0.53
2023-05-21T10:42:28.907Z,0.54
2023-05-21T10:43:28.892Z,0.54
2023-05-21T10:44:28.900Z,0.54
2023-05-21T10:45:28.941Z,0.54
2023-05-21T10:46:28.864Z,0.53
2023-05-21T10:47:28.933Z,0.53
2023-05-21T10:48:28.888Z,0.53
2023-05-21T10:49:28.866Z,0.54
2023-05-21T10:50:28.847Z,0.52
2023-05-21T10:51:28.869Z,0.53
2023-05-21T10:52:28.844Z,0.54
2023-05-21T10:53:28.840Z,0.54
2023-05-21T10:54:28.844Z,0.53
2023-05-21T10:55:28.845Z,0.54
2023-05-21T10:56:28.823Z,0.54
2023-05-21T10:57:28.816Z,0.54
2023-05-21T10:58:30.094Z,0.53
2023-05-21T10:59:28.834Z,0.52
2023-05-21T11:00:28.821Z,0.53
2023-05-21T11:01:28.821Z,0.53
2023-05-21T11:02:28.960Z,0.54
2023-05-21T11:03:28.843Z,0.53
2023-05-21T11:04:28.744Z,0.53
2023-05-21T11:05:28.742Z,0.52
2023-05-21T11:06:28.780Z,0.52
2023-05-21T11:07:28.752Z,0.53
2023-05-21T11:08:28.710Z,0.52
2023-05-21T11:09:28.760Z,0.52
2023-05-21T11:10:28.734Z,0.52
2023-05-21T11:11:28.732Z,0.51
2023-05-21T11:12:28.684Z,0.52
2023-05-21T11:13:28.716Z,0.51
2023-05-21T11:14:28.695Z,0.51
2023-05-21T11:15:28.691Z,0.51
2023-05-21T11:16:28.741Z,0.51
2023-05-21T11:17:28.733Z,0.51
2023-05-21T11:18:28.678Z,0.51
2023-05-21T11:19:29.015Z,0.52
2023-05-21T11:20:28.709Z,0.52
2023-05-21T11:21:29.059Z,0.52
2023-05-21T11:22:28.780Z,0.51
2023-05-21T11:23:28.821Z,0.52
2023-05-21T11:24:28.862Z,0.51
2023-05-21T11:25:28.894Z,0.51
2023-05-21T11:26:29.059Z,0.53
2023-05-21T11:27:28.901Z,0.51
2023-05-21T11:28:28.956Z,0.50
2023-05-21T11:29:29.004Z,0.52
2023-05-21T11:30:29.032Z,0.51
2023-05-21T11:31:29.103Z,0.52
2023-05-21T11:32:29.121Z,0.51
2023-05-21T11:33:29.119Z,0.52
2023-05-21T11:34:29.132Z,0.51
2023-05-21T11:35:29.154Z,0.51
2023-05-21T11:36:29.569Z,0.52
2023-05-21T11:37:29.231Z,0.51
2023-05-21T11:38:29.262Z,0.52
2023-05-21T11:39:29.263Z,0.52
2023-05-21T11:40:29.352Z,0.53
2023-05-21T11:41:29.357Z,0.51
2023-05-21T11:42:29.372Z,0.52
2023-05-21T11:43:29.380Z,0.52
2023-05-21T11:44:29.425Z,0.52
2023-05-21T11:45:29.453Z,0.52
2023-05-21T11:46:29.557Z,0.52
2023-05-21T11:47:29.571Z,0.53
2023-05-21T11:48:31.869Z,0.52
2023-05-21T11:49:29.685Z,0.53
2023-05-21T11:50:29.575Z,0.52
2023-05-21T11:51:29.561Z,0.53
2023-05-21T11:52:29.537Z,0.52
2023-05-21T11:53:29.525Z,0.53
2023-05-21T11:54:29.503Z,0.53
2023-05-21T11:55:29.487Z,0.52
2023-05-21T11:56:29.540Z,0.52
2023-05-21T11:57:29.469Z,0.53
2023-05-21T11:58:29.540Z,0.52
2023-05-21T11:59:29.514Z,0.54
2023-05-21T12:00:29.522Z,0.53
2023-05-21T12:01:29.468Z,0.52
2023-05-21T12:02:29.524Z,0.53
2023-05-21T12:03:29.591Z,0.53
2023-05-21T12:04:29.406Z,0.53
2023-05-21T12:05:29.445Z,0.54
2023-05-21T12:06:29.524Z,0.53
2023-05-21T12:07:29.405Z,0.53
2023-05-21T12:08:29.440Z,0.53
2023-05-21T12:09:29.430Z,0.54
2023-05-21T12:10:29.390Z,0.54
2023-05-21T12:11:29.605Z,0.53
2023-05-21T12:12:38.789Z,0.54
2023-05-21T12:13:30.384Z,0.54
2023-05-21T12:14:29.438Z,0.54
2023-05-21T12:15:29.339Z,0.54
2023-05-21T12:16:29.584Z,0.54
2023-05-21T12:17:29.351Z,0.53
2023-05-21T12:18:29.349Z,0.54
2023-05-21T12:19:29.496Z,0.54
2023-05-21T12:20:29.336Z,0.55
2023-05-21T12:21:29.327Z,0.53
2023-05-21T12:22:29.335Z,0.54
2023-05-21T12:23:29.299Z,0.53
2023-05-21T12:24:29.322Z,0.55
2023-05-21T12:25:29.300Z,0.55
2023-05-21T12:26:29.304Z,0.54
2023-05-21T12:27:29.296Z,0.55
2023-05-21T12:28:29.285Z,0.55
2023-05-21T12:29:29.269Z,0.54
2023-05-21T12:30:29.287Z,0.55
2023-05-21T12:31:29.429Z,0.55
2023-05-21T12:32:29.351Z,0.55
2023-05-21T12:33:29.369Z,0.55
2023-05-21T12:34:29.420Z,0.55
2023-05-21T12:35:29.441Z,0.55
2023-05-21T12:36:29.608Z,0.55
2023-05-21T12:37:29.473Z,0.54
2023-05-21T12:38:29.478Z,0.55
2023-05-21T12:39:29.549Z,0.55
2023-05-21T12:40:29.561Z,0.54
2023-05-21T12:41:29.576Z,0.55
2023-05-21T12:42:29.614Z,0.55
2023-05-21T12:43:29.636Z,0.55
2023-05-21T12:44:29.629Z,0.55
2023-05-21T12:45:29.647Z,0.55
2023-05-21T12:46:29.781Z,0.57
2023-05-21T12:47:29.718Z,0.56
2023-05-21T12:48:29.752Z,0.56
2023-05-21T12:49:29.770Z,0.57
2023-05-21T12:50:29.795Z,0.57
2023-05-21T12:51:29.821Z,0.55
2023-05-21T12:52:29.849Z,0.56
2023-05-21T12:53:29.900Z,0.56
2023-05-21T12:54:29.899Z,0.56
2023-05-21T12:55:29.949Z,0.56
2023-05-21T12:56:29.988Z,0.55
2023-05-21T12:57:29.973Z,0.56
2023-05-21T12:58:30.009Z,0.56
2023-05-21T12:59:30.042Z,0.56
2023-05-21T13:00:30.069Z,0.55
2023-05-21T13:01:37.198Z,0.56
2023-05-21T13:02:30.069Z,0.56
2023-05-21T13:03:30.041Z,0.56
2023-05-21T13:04:30.081Z,0.57
2023-05-21T13:05:30.082Z,0.56
2023-05-21T13:06:30.177Z,0.56
2023-05-21T13:07:30.060Z,0.57
2023-05-21T13:08:30.012Z,0.56
2023-05-21T13:09:30.039Z,0.57
2023-05-21T13:10:30.020Z,0.57
2023-05-21T13:11:30.121Z,0.57
2023-05-21T13:12:30.022Z,0.55
2023-05-21T13:13:29.985Z,0.57
2023-05-21T13:14:30.032Z,0.56
2023-05-21T13:15:30.040Z,0.56
2023-05-21T13:16:30.147Z,0.56
2023-05-21T13:17:29.980Z,0.56
2023-05-21T13:18:29.972Z,0.56